Time;durP1;ratioP1;P1;durP2;ratioP2;P2;SDS_P1;SDS_P2;PMS_P1;PMS_P2;Temp;Humidity;BMP_temperature;BMP_pressure;BME280_temperature;BME280_humidity;BME280_pressure;Samples;Min_cycle;Max_cycle;Signal;HPM_P1;HPM_P2
2023/03/19 00:01:26;;;;;;;7.80;5.27;;;12.00;99.90;;;;;;5014243;28;20561;-68
2023/03/19 00:03:51;;;;;;;12.20;6.50;;;12.00;99.90;;;;;;5012824;28;20238;-69
2023/03/19 00:06:17;;;;;;;9.70;5.90;;;12.00;99.90;;;;;;5014193;28;20472;-69
2023/03/19 00:08:43;;;;;;;6.13;4.80;;;12.00;99.90;;;;;;5011151;28;20187;-69
2023/03/19 00:11:10;;;;;;;7.00;4.60;;;12.00;99.90;;;;;;5014039;28;20183;-68
2023/03/19 00:13:35;;;;;;;5.83;5.20;;;12.10;99.90;;;;;;5013992;28;20190;-68
2023/03/19 00:16:01;;;;;;;6.43;5.60;;;12.10;99.90;;;;;;5013472;28;20503;-68
2023/03/19 00:18:26;;;;;;;7.00;6.27;;;12.20;99.90;;;;;;5008226;28;20314;-68
2023/03/19 00:20:52;;;;;;;6.37;5.13;;;12.20;99.90;;;;;;5013336;28;20550;-68
2023/03/19 00:23:18;;;;;;;7.47;5.27;;;12.20;99.90;;;;;;5013845;28;20183;-68
2023/03/19 00:25:43;;;;;;;6.60;5.37;;;12.20;99.90;;;;;;5013740;28;20668;-68
2023/03/19 00:28:09;;;;;;;5.47;4.67;;;12.10;99.90;;;;;;5012735;28;20721;-68
2023/03/19 00:30:35;;;;;;;8.60;5.10;;;12.00;99.90;;;;;;5011762;28;20834;-68
2023/03/19 00:33:01;;;;;;;5.33;4.80;;;12.00;99.90;;;;;;5013651;28;20179;-68
2023/03/19 00:35:27;;;;;;;5.00;4.60;;;12.00;99.90;;;;;;5012666;28;20437;-69
2023/03/19 00:37:54;;;;;;;5.30;4.40;;;12.00;99.90;;;;;;5012876;28;20812;-68
2023/03/19 00:40:19;;;;;;;8.27;4.80;;;12.10;99.90;;;;;;5012402;28;20194;-68
2023/03/19 00:42:45;;;;;;;7.87;4.93;;;12.10;99.90;;;;;;5013595;28;20441;-69
2023/03/19 00:45:11;;;;;;;6.07;4.80;;;12.00;99.90;;;;;;5011087;28;20214;-68
2023/03/19 00:47:37;;;;;;;9.10;4.50;;;12.10;99.90;;;;;;5009576;28;20211;-68
2023/03/19 00:50:03;;;;;;;5.53;3.60;;;12.10;99.90;;;;;;5011887;28;20516;-69
2023/03/19 00:52:29;;;;;;;6.80;4.43;;;12.10;99.90;;;;;;5012642;28;20197;-69
2023/03/19 00:54:55;;;;;;;4.73;4.33;;;12.10;99.90;;;;;;5013103;28;20438;-69
2023/03/19 00:57:21;;;;;;;6.10;3.87;;;12.10;99.90;;;;;;5013332;28;20453;-69
2023/03/19 00:59:46;;;;;;;5.73;3.40;;;12.10;99.90;;;;;;5011787;28;20692;-69
2023/03/19 01:02:12;;;;;;;5.70;4.73;;;12.10;99.90;;;;;;5012260;28;20253;-69
2023/03/19 01:04:38;;;;;;;6.10;5.03;;;12.00;99.90;;;;;;5012936;28;20461;-68
2023/03/19 01:07:03;;;;;;;5.47;3.83;;;12.00;99.90;;;;;;5012477;28;20171;-68
2023/03/19 01:09:29;;;;;;;4.40;3.97;;;12.00;99.90;;;;;;5012091;28;20203;-68
2023/03/19 01:11:55;;;;;;;6.80;4.70;;;12.00;99.90;;;;;;5010509;28;20179;-68
2023/03/19 01:14:21;;;;;;;7.10;4.70;;;12.00;99.90;;;;;;5011885;28;20537;-68
2023/03/19 01:16:46;;;;;;;9.10;4.00;;;12.10;99.90;;;;;;5016200;28;20440;-68
2023/03/19 01:19:13;;;;;;;5.33;4.47;;;12.20;99.90;;;;;;5009856;28;20202;-68
2023/03/19 01:21:38;;;;;;;4.90;4.40;;;12.20;99.90;;;;;;5008804;28;20180;-68
2023/03/19 01:24:04;;;;;;;5.90;4.03;;;12.20;99.90;;;;;;5012260;28;20558;-68
2023/03/19 01:26:30;;;;;;;13.70;4.90;;;12.30;99.90;;;;;;5012612;28;20714;-68
2023/03/19 01:28:57;;;;;;;6.93;4.83;;;12.20;99.90;;;;;;5010875;28;20210;-68
2023/03/19 01:31:22;;;;;;;5.13;4.03;;;12.10;99.90;;;;;;5011597;28;20179;-68
2023/03/19 01:33:48;;;;;;;4.87;4.47;;;12.00;99.90;;;;;;5012052;28;20955;-68
2023/03/19 01:36:13;;;;;;;7.53;4.67;;;12.00;99.90;;;;;;5011574;28;20597;-68
2023/03/19 01:38:39;;;;;;;6.23;4.80;;;12.00;99.90;;;;;;5010696;28;20232;-68
2023/03/19 01:41:05;;;;;;;6.70;3.13;;;12.00;99.90;;;;;;5012510;28;20206;-68
2023/03/19 01:43:31;;;;;;;3.43;3.13;;;12.10;99.90;;;;;;5011622;28;20270;-68
2023/03/19 01:46:21;;;;;;;4.10;3.60;;;12.20;99.90;;;;;;5010438;28;20436;-68
2023/03/19 01:48:50;;;;;;;5.97;4.00;;;12.20;99.90;;;;;;5011271;28;20485;-68
2023/03/19 01:51:20;;;;;;;8.00;4.57;;;12.10;99.90;;;;;;5010876;28;20437;-68
2023/03/19 01:53:54;;;;;;;5.23;3.80;;;12.10;99.90;;;;;;5011973;28;20947;-68
2023/03/19 01:56:31;;;;;;;11.93;4.03;;;12.00;99.90;;;;;;5009612;28;20439;-67
2023/03/19 01:59:01;;;;;;;4.30;4.00;;;12.00;99.90;;;;;;5010872;28;20453;-68
2023/03/19 02:01:28;;;;;;;4.53;3.90;;;11.90;99.90;;;;;;5012667;28;20533;-68
2023/03/19 02:03:54;;;;;;;6.90;4.47;;;11.90;99.90;;;;;;5015672;28;20469;-68
2023/03/19 02:06:22;;;;;;;10.73;4.80;;;11.90;99.90;;;;;;5011052;28;20448;-67
2023/03/19 02:08:50;;;;;;;4.30;3.97;;;11.80;99.90;;;;;;5008080;28;20548;-67
2023/03/19 02:11:17;;;;;;;5.50;4.37;;;11.70;99.90;;;;;;5010352;28;20875;-68
2023/03/19 02:13:42;;;;;;;7.20;4.43;;;11.30;99.90;;;;;;5011887;28;20444;-68
2023/03/19 02:16:08;;;;;;;5.10;4.60;;;10.90;99.90;;;;;;5011248;28;20532;-68
2023/03/19 02:18:35;;;;;;;6.23;5.63;;;10.80;99.90;;;;;;5010222;28;20256;-68
2023/03/19 02:21:09;;;;;;;7.67;5.73;;;10.60;99.90;;;;;;5010976;28;20269;-68
2023/03/19 02:23:42;;;;;;;6.47;5.40;;;10.60;99.90;;;;;;5010435;28;20473;-68
2023/03/19 02:26:16;;;;;;;7.60;5.50;;;10.50;99.90;;;;;;5001717;28;20461;-68
2023/03/19 02:28:45;;;;;;;9.07;6.87;;;10.50;99.90;;;;;;5014470;28;20551;-68
2023/03/19 02:31:12;;;;;;;6.50;5.90;;;10.50;99.90;;;;;;5013331;28;20437;-68
2023/03/19 02:33:38;;;;;;;9.03;6.63;;;10.50;99.90;;;;;;5011240;28;20437;-68
2023/03/19 02:36:08;;;;;;;7.13;6.50;;;10.50;99.90;;;;;;5011535;28;20441;-68
2023/03/19 02:38:35;;;;;;;8.50;6.50;;;10.60;99.90;;;;;;5007457;28;20199;-68
2023/03/19 02:41:03;;;;;;;6.80;5.80;;;10.60;99.90;;;;;;5010765;28;20454;-69
2023/03/19 02:43:30;;;;;;;10.20;6.40;;;10.70;99.90;;;;;;5010583;28;20998;-68
2023/03/19 02:45:57;;;;;;;8.00;7.30;;;10.60;99.90;;;;;;5010332;28;20953;-68
2023/03/19 02:48:23;;;;;;;7.50;5.93;;;10.50;99.90;;;;;;5010512;28;20466;-68
2023/03/19 02:50:49;;;;;;;6.53;5.93;;;10.50;99.90;;;;;;5009620;28;20482;-68
2023/03/19 02:53:15;;;;;;;10.70;7.30;;;10.40;99.90;;;;;;5011612;28;20433;-68
2023/03/19 02:55:41;;;;;;;8.43;7.53;;;10.40;99.90;;;;;;5009392;28;20441;-68
2023/03/19 02:58:07;;;;;;;7.47;6.70;;;10.40;99.90;;;;;;5009977;28;20178;-68
2023/03/19 03:00:32;;;;;;;7.33;6.63;;;10.40;99.90;;;;;;5010002;28;20474;-68
2023/03/19 03:02:58;;;;;;;8.10;7.30;;;10.50;99.90;;;;;;5010617;28;20179;-68
2023/03/19 03:05:24;;;;;;;10.23;7.33;;;10.50;99.90;;;;;;5011093;28;20203;-68
2023/03/19 03:07:50;;;;;;;8.50;6.90;;;10.50;99.90;;;;;;5010939;28;20179;-68
2023/03/19 03:10:15;;;;;;;8.00;7.30;;;10.60;99.90;;;;;;5012843;28;20915;-68
2023/03/19 03:12:41;;;;;;;9.33;7.27;;;10.50;99.90;;;;;;5012140;28;20183;-68
2023/03/19 03:15:07;;;;;;;7.70;6.93;;;10.60;99.90;;;;;;5014203;28;20190;-68
2023/03/19 03:17:36;;;;;;;6.93;6.30;;;10.60;99.90;;;;;;5015120;28;20530;-68
2023/03/19 03:20:03;;;;;;;7.80;7.10;;;10.60;99.90;;;;;;5006901;28;20493;-68
2023/03/19 03:22:29;;;;;;;6.80;6.30;;;10.50;99.90;;;;;;5014649;28;20436;-68
2023/03/19 03:24:55;;;;;;;7.93;7.10;;;10.50;99.90;;;;;;5014697;28;20465;-68
2023/03/19 03:27:20;;;;;;;8.13;7.33;;;10.50;99.90;;;;;;5015182;28;20175;-68
2023/03/19 03:29:46;;;;;;;7.50;6.80;;;10.40;99.90;;;;;;5012236;28;20709;-68
2023/03/19 03:32:12;;;;;;;9.43;6.83;;;10.40;99.90;;;;;;5014510;28;20679;-68
2023/03/19 03:34:38;;;;;;;8.53;7.77;;;10.40;99.90;;;;;;5014983;28;20430;-68
2023/03/19 03:37:03;;;;;;;9.03;8.00;;;10.40;99.90;;;;;;5014820;28;20175;-68
2023/03/19 03:39:29;;;;;;;7.97;7.07;;;10.40;99.90;;;;;;5012455;28;20464;-68
2023/03/19 03:41:54;;;;;;;7.93;7.20;;;10.40;99.90;;;;;;5014080;28;20270;-68
2023/03/19 03:44:20;;;;;;;7.80;7.00;;;10.40;99.90;;;;;;5012687;28;20720;-68
2023/03/19 03:46:45;;;;;;;7.97;7.17;;;10.20;99.90;;;;;;5012968;28;20171;-68
2023/03/19 03:49:11;;;;;;;8.70;7.50;;;10.20;99.90;;;;;;5012555;28;20214;-68
2023/03/19 03:51:36;;;;;;;7.53;6.80;;;10.00;99.90;;;;;;5014945;28;20198;-68
2023/03/19 03:54:02;;;;;;;11.40;6.93;;;10.00;99.90;;;;;;5012204;28;20216;-68
2023/03/19 03:56:28;;;;;;;7.00;6.30;;;10.00;99.90;;;;;;5014850;28;20660;-69
2023/03/19 03:58:53;;;;;;;6.90;6.20;;;9.90;99.90;;;;;;5013756;28;20202;-68
2023/03/19 04:01:19;;;;;;;6.20;5.60;;;9.90;99.90;;;;;;5013063;28;20175;-68
2023/03/19 04:03:45;;;;;;;7.07;6.47;;;10.00;99.90;;;;;;5014589;28;20205;-69
2023/03/19 04:06:16;;;;;;;10.00;7.60;;;10.00;99.90;;;;;;5014357;28;20543;-69
2023/03/19 04:08:42;;;;;;;7.10;6.47;;;10.00;99.90;;;;;;5013360;28;20815;-68
2023/03/19 04:11:08;;;;;;;7.37;6.77;;;10.00;99.90;;;;;;5013215;28;20513;-69
2023/03/19 04:13:35;;;;;;;6.47;5.87;;;10.10;99.90;;;;;;5013746;28;20175;-69
2023/03/19 04:16:06;;;;;;;6.87;6.17;;;10.10;99.90;;;;;;5013618;28;20512;-68
2023/03/19 04:18:32;;;;;;;6.47;5.87;;;10.20;99.90;;;;;;5013559;28;20456;-68
2023/03/19 04:20:58;;;;;;;8.30;7.40;;;10.20;99.90;;;;;;5013815;28;20946;-68
2023/03/19 04:23:24;;;;;;;6.63;5.73;;;10.20;99.90;;;;;;5014167;28;20183;-68
2023/03/19 04:25:50;;;;;;;6.30;5.40;;;10.20;99.90;;;;;;4998507;28;20203;-69
2023/03/19 04:28:15;;;;;;;5.80;4.63;;;10.30;99.90;;;;;;5011736;28;20473;-68
2023/03/19 04:30:42;;;;;;;6.07;5.47;;;10.30;99.90;;;;;;5013815;28;20182;-69
2023/03/19 04:33:09;;;;;;;5.07;4.67;;;10.30;99.90;;;;;;5014371;28;20205;-68
2023/03/19 04:35:35;;;;;;;5.63;5.00;;;10.30;99.90;;;;;;5013400;28;20437;-68
2023/03/19 04:38:01;;;;;;;5.70;5.00;;;10.30;99.90;;;;;;5011074;28;20811;-68
2023/03/19 04:40:27;;;;;;;4.97;4.60;;;10.20;99.90;;;;;;5012765;28;20449;-68
2023/03/19 04:42:53;;;;;;;6.00;5.10;;;10.20;99.90;;;;;;5008781;28;20172;-69
2023/03/19 04:45:19;;;;;;;5.77;5.33;;;10.20;99.90;;;;;;5013434;28;20462;-68
2023/03/19 04:47:44;;;;;;;6.00;5.40;;;10.20;99.90;;;;;;5001257;28;20971;-68
2023/03/19 04:50:11;;;;;;;6.10;5.50;;;10.20;99.90;;;;;;4998226;28;20202;-68
2023/03/19 04:52:38;;;;;;;5.63;4.93;;;10.20;99.90;;;;;;5012688;28;20654;-68
2023/03/19 04:55:05;;;;;;;5.97;5.40;;;10.10;99.90;;;;;;5013221;28;20505;-68
2023/03/19 04:57:31;;;;;;;7.20;5.00;;;10.10;99.90;;;;;;5013373;28;20452;-68
2023/03/19 04:59:56;;;;;;;8.00;5.40;;;10.00;99.90;;;;;;5012578;28;20469;-68
2023/03/19 05:02:22;;;;;;;6.80;5.40;;;10.00;99.90;;;;;;5013799;28;20195;-68
2023/03/19 05:04:47;;;;;;;4.57;4.13;;;10.10;99.90;;;;;;5009881;28;20195;-69
2023/03/19 05:07:13;;;;;;;5.60;5.10;;;10.10;99.90;;;;;;4995394;28;20649;-68
2023/03/19 05:09:39;;;;;;;5.37;4.97;;;10.20;99.90;;;;;;5000079;28;20195;-68
2023/03/19 05:12:05;;;;;;;5.30;4.80;;;10.20;99.90;;;;;;5013042;28;20652;-68
2023/03/19 05:14:31;;;;;;;5.57;5.10;;;10.20;99.90;;;;;;5012380;28;20789;-68
2023/03/19 05:16:56;;;;;;;6.80;4.73;;;10.20;99.90;;;;;;5012952;28;20434;-68
2023/03/19 05:19:22;;;;;;;5.30;4.90;;;10.20;99.90;;;;;;5012230;28;20201;-68
2023/03/19 05:21:48;;;;;;;7.53;4.93;;;10.30;99.90;;;;;;5013031;28;20692;-68
2023/03/19 05:24:13;;;;;;;7.03;5.57;;;10.30;99.90;;;;;;5012820;28;20209;-68
2023/03/19 05:26:39;;;;;;;6.03;5.47;;;10.40;99.90;;;;;;5012059;28;20183;-68
2023/03/19 05:29:05;;;;;;;6.00;5.50;;;10.40;99.90;;;;;;5012432;28;20194;-68
2023/03/19 05:31:30;;;;;;;5.83;5.33;;;10.40;99.90;;;;;;5011997;28;20681;-68
2023/03/19 05:33:56;;;;;;;5.13;4.63;;;10.40;99.90;;;;;;5012080;28;20437;-68
2023/03/19 05:36:22;;;;;;;6.77;6.17;;;10.30;99.90;;;;;;5010895;28;20262;-68
2023/03/19 05:38:48;;;;;;;6.30;5.60;;;10.40;99.90;;;;;;5006361;28;20637;-68
2023/03/19 05:41:14;;;;;;;4.93;4.53;;;10.40;99.90;;;;;;5012241;28;20472;-68
2023/03/19 05:43:39;;;;;;;5.47;4.83;;;10.30;99.90;;;;;;5012586;28;20236;-68
2023/03/19 05:46:04;;;;;;;6.00;4.70;;;10.30;99.90;;;;;;5012062;28;20203;-68
2023/03/19 05:48:30;;;;;;;10.87;6.70;;;10.20;99.90;;;;;;5004269;28;20235;-68
2023/03/19 05:50:58;;;;;;;5.80;5.27;;;10.10;99.90;;;;;;5003183;28;20254;-68
2023/03/19 05:53:23;;;;;;;5.77;5.27;;;10.10;99.90;;;;;;5012919;28;20197;-68
2023/03/19 05:55:49;;;;;;;5.20;4.70;;;10.00;99.90;;;;;;5012944;28;20429;-68
2023/03/19 05:58:15;;;;;;;5.50;5.00;;;10.00;99.90;;;;;;5012024;28;20189;-68
2023/03/19 06:00:41;;;;;;;4.70;4.30;;;10.00;99.90;;;;;;5011667;28;20560;-68
2023/03/19 06:03:07;;;;;;;6.67;4.47;;;10.00;99.90;;;;;;5007033;28;20425;-68
2023/03/19 06:05:32;;;;;;;6.57;4.10;;;10.00;99.90;;;;;;5010044;28;20207;-68
2023/03/19 06:07:58;;;;;;;4.93;4.23;;;10.00;99.90;;;;;;5012484;28;20221;-68
2023/03/19 06:10:23;;;;;;;6.70;4.33;;;10.00;99.90;;;;;;5011587;28;20206;-68
2023/03/19 06:12:49;;;;;;;4.90;4.40;;;10.00;99.90;;;;;;5007508;28;20634;-68
2023/03/19 06:15:15;;;;;;;5.40;4.20;;;10.10;99.90;;;;;;5006608;28;20189;-68
2023/03/19 06:17:43;;;;;;;6.37;4.43;;;10.10;99.90;;;;;;5011778;28;20179;-68
2023/03/19 06:20:10;;;;;;;6.47;4.20;;;10.10;99.90;;;;;;5010423;28;20795;-68
2023/03/19 06:22:35;;;;;;;4.60;4.07;;;10.20;99.90;;;;;;5006627;28;21188;-68
2023/03/19 06:25:01;;;;;;;5.07;4.47;;;10.20;99.90;;;;;;5011704;28;20449;-68
2023/03/19 06:27:27;;;;;;;5.20;4.70;;;10.30;99.90;;;;;;5012572;28;20316;-68
2023/03/19 06:29:52;;;;;;;4.40;3.70;;;10.30;99.90;;;;;;5011691;28;20237;-68
2023/03/19 06:32:18;;;;;;;6.60;5.67;;;10.30;99.90;;;;;;5011850;28;20264;-68
2023/03/19 06:34:43;;;;;;;7.60;3.77;;;10.40;99.90;;;;;;5011808;28;20175;-68
2023/03/19 06:37:09;;;;;;;4.93;4.20;;;10.40;99.90;;;;;;5012252;28;20175;-68
2023/03/19 06:39:34;;;;;;;4.33;3.93;;;10.50;99.90;;;;;;5015328;28;20214;-68
2023/03/19 06:42:00;;;;;;;4.70;4.30;;;10.60;99.90;;;;;;5009139;28;20537;-68
2023/03/19 06:44:26;;;;;;;5.00;4.07;;;10.70;99.90;;;;;;5004086;28;20222;-68
2023/03/19 06:46:52;;;;;;;5.40;4.20;;;10.60;99.90;;;;;;5012109;28;20206;-68
2023/03/19 06:49:18;;;;;;;4.90;3.97;;;10.60;99.90;;;;;;5010355;28;20678;-68
2023/03/19 06:51:43;;;;;;;5.53;3.93;;;10.50;99.90;;;;;;5011726;28;20210;-68
2023/03/19 06:54:09;;;;;;;5.20;4.17;;;10.50;99.90;;;;;;5010318;28;20543;-69
2023/03/19 06:56:34;;;;;;;6.50;4.43;;;10.50;99.90;;;;;;5011256;28;20182;-68
2023/03/19 06:59:01;;;;;;;4.60;3.70;;;10.50;99.90;;;;;;5011150;28;20203;-68
2023/03/19 07:01:26;;;;;;;5.37;3.73;;;10.60;99.90;;;;;;5017519;28;20266;-68
2023/03/19 07:03:52;;;;;;;6.27;3.57;;;10.70;99.90;;;;;;4999911;28;20545;-68
2023/03/19 07:06:17;;;;;;;4.60;4.20;;;10.70;99.90;;;;;;5008525;28;20266;-68
2023/03/19 07:08:45;;;;;;;6.03;4.70;;;10.80;99.90;;;;;;4995846;28;20198;-68
2023/03/19 07:11:11;;;;;;;7.43;4.50;;;10.80;99.90;;;;;;5011689;28;20167;-68
2023/03/19 07:13:37;;;;;;;11.40;9.30;;;10.70;99.90;;;;;;5011412;28;20886;-68
2023/03/19 07:16:03;;;;;;;4.90;4.40;;;10.70;99.90;;;;;;5008548;28;20525;-68
2023/03/19 07:18:29;;;;;;;5.70;4.50;;;10.70;99.90;;;;;;5005735;28;20207;-68
2023/03/19 07:20:54;;;;;;;5.83;4.60;;;10.70;99.90;;;;;;4999598;28;20480;-68
2023/03/19 07:23:20;;;;;;;5.40;4.37;;;10.70;99.90;;;;;;5008257;28;20170;-68
2023/03/19 07:25:46;;;;;;;4.03;3.67;;;10.70;99.90;;;;;;5017564;28;20203;-67
2023/03/19 07:28:12;;;;;;;3.87;3.57;;;10.70;99.90;;;;;;5009185;28;20269;-68
2023/03/19 07:30:38;;;;;;;4.20;3.47;;;10.80;99.90;;;;;;5009183;28;20430;-68
2023/03/19 07:33:06;;;;;;;4.40;3.90;;;10.90;99.90;;;;;;5004262;28;20480;-68
2023/03/19 07:35:32;;;;;;;4.63;4.17;;;10.90;99.90;;;;;;5010433;28;20187;-68
2023/03/19 07:37:58;;;;;;;4.90;4.40;;;11.00;99.90;;;;;;5007372;28;20438;-68
2023/03/19 07:40:24;;;;;;;14.73;8.53;;;11.00;99.90;;;;;;5008311;28;20993;-68
2023/03/19 07:42:50;;;;;;;8.00;3.80;;;11.00;99.90;;;;;;5009878;28;20438;-68
2023/03/19 07:45:15;;;;;;;4.37;3.60;;;11.00;99.90;;;;;;5011237;28;20198;-68
2023/03/19 07:47:41;;;;;;;3.50;3.13;;;11.00;99.90;;;;;;5012914;28;20938;-68
2023/03/19 07:50:07;;;;;;;7.10;3.60;;;11.10;99.90;;;;;;5009318;28;20217;-68
2023/03/19 07:52:33;;;;;;;4.67;3.83;;;11.10;99.90;;;;;;5010554;28;20202;-68
2023/03/19 07:54:59;;;;;;;4.07;3.67;;;11.10;99.90;;;;;;5005654;28;20473;-68
2023/03/19 07:57:25;;;;;;;3.87;2.80;;;11.20;99.90;;;;;;5008640;28;20190;-69
2023/03/19 07:59:50;;;;;;;6.57;2.87;;;11.30;99.90;;;;;;5013754;28;20230;-68
2023/03/19 08:02:17;;;;;;;3.80;3.13;;;11.30;99.90;;;;;;5013772;28;20534;-68
2023/03/19 08:04:42;;;;;;;5.90;5.27;;;11.40;99.90;;;;;;5014225;28;20572;-68
2023/03/19 08:07:11;;;;;;;4.50;4.10;;;11.50;99.90;;;;;;5012696;28;20437;-68
2023/03/19 08:09:38;;;;;;;4.70;3.70;;;11.60;99.90;;;;;;5013035;28;20680;-68
2023/03/19 08:12:05;;;;;;;4.30;2.90;;;11.80;99.90;;;;;;5013470;28;20431;-68
2023/03/19 08:14:31;;;;;;;3.83;2.77;;;11.90;99.90;;;;;;5012888;28;20446;-68
2023/03/19 08:16:57;;;;;;;3.20;2.90;;;12.00;99.90;;;;;;5009875;28;20503;-68
2023/03/19 08:19:22;;;;;;;4.30;3.40;;;12.00;99.90;;;;;;5011677;28;21044;-68
2023/03/19 08:21:48;;;;;;;4.93;4.43;;;12.10;99.90;;;;;;5012311;28;20889;-68
2023/03/19 08:24:14;;;;;;;4.80;4.10;;;12.20;99.90;;;;;;5011238;28;20257;-68
2023/03/19 08:26:39;;;;;;;5.87;3.43;;;12.30;99.90;;;;;;5013131;28;20237;-68
2023/03/19 08:29:05;;;;;;;3.80;3.50;;;12.50;99.90;;;;;;5013696;28;20682;-68
2023/03/19 08:31:31;;;;;;;5.40;3.43;;;12.80;99.90;;;;;;4997771;28;20617;-68
2023/03/19 08:33:59;;;;;;;3.10;2.90;;;12.90;99.90;;;;;;5013572;28;20970;-68
2023/03/19 08:36:25;;;;;;;4.10;3.40;;;13.00;99.90;;;;;;5014129;28;20179;-68
2023/03/19 08:38:53;;;;;;;4.60;2.93;;;13.00;99.90;;;;;;5011587;28;20472;-68
2023/03/19 08:41:19;;;;;;;5.07;3.37;;;12.90;99.90;;;;;;5008788;28;20966;-68
2023/03/19 08:43:45;;;;;;;3.63;3.10;;;12.90;99.90;;;;;;5009719;28;20507;-68
2023/03/19 08:46:11;;;;;;;4.40;2.93;;;13.10;99.90;;;;;;5013172;28;20433;-68
2023/03/19 08:48:36;;;;;;;3.97;3.67;;;13.20;99.90;;;;;;5012382;28;20215;-68
2023/03/19 08:51:04;;;;;;;3.87;3.10;;;13.20;99.90;;;;;;5012553;28;20590;-68
2023/03/19 08:53:31;;;;;;;4.40;3.67;;;13.30;99.90;;;;;;5006622;28;20179;-68
2023/03/19 08:56:01;;;;;;;3.93;3.60;;;13.20;99.90;;;;;;5012988;28;20437;-68
2023/03/19 08:58:27;;;;;;;6.47;5.87;;;13.20;99.90;;;;;;5012491;28;20484;-68
2023/03/19 09:01:00;;;;;;;5.17;4.60;;;13.50;99.90;;;;;;5020770;28;20440;-67
2023/03/19 09:03:26;;;;;;;4.00;3.60;;;13.70;99.90;;;;;;5012437;28;20580;-68
2023/03/19 09:05:51;;;;;;;5.40;4.30;;;13.80;99.90;;;;;;5011690;28;20562;-68
2023/03/19 09:08:17;;;;;;;6.30;4.80;;;14.70;99.90;;;;;;5011430;28;20831;-69
2023/03/19 09:10:43;;;;;;;7.97;3.97;;;15.50;99.90;;;;;;5011538;28;20178;-70
2023/03/19 09:13:08;;;;;;;4.00;3.57;;;15.70;99.90;;;;;;5012512;28;20179;-68
2023/03/19 09:15:34;;;;;;;3.57;3.27;;;15.60;99.90;;;;;;5013665;28;20228;-69
2023/03/19 09:17:59;;;;;;;4.40;4.00;;;15.40;99.90;;;;;;5013180;28;20265;-69
2023/03/19 09:20:25;;;;;;;5.63;3.20;;;15.20;99.90;;;;;;5012523;28;20713;-70
2023/03/19 09:22:50;;;;;;;3.83;3.53;;;15.00;99.90;;;;;;5012923;28;20187;-71
2023/03/19 09:25:16;;;;;;;4.93;3.53;;;15.10;99.90;;;;;;5011841;28;20301;-72
2023/03/19 09:27:42;;;;;;;6.10;3.60;;;15.20;99.90;;;;;;5012540;28;20175;-71
2023/03/19 09:30:08;;;;;;;5.67;3.20;;;15.50;99.90;;;;;;5011818;28;20718;-70
2023/03/19 09:32:34;;;;;;;3.70;3.33;;;15.70;99.90;;;;;;5010710;28;20202;-71
2023/03/19 09:35:00;;;;;;;3.13;2.93;;;15.50;99.90;;;;;;5011634;28;20440;-72
2023/03/19 09:37:26;;;;;;;3.30;3.10;;;15.30;99.90;;;;;;5009954;28;20883;-72
2023/03/19 09:39:51;;;;;;;3.57;3.30;;;15.50;99.90;;;;;;5006552;28;20211;-71
2023/03/19 09:42:43;;;;;;;3.90;3.60;;;16.50;99.90;;;;;;5011650;28;20668;-72
2023/03/19 09:45:14;;;;;;;3.60;3.07;;;16.90;99.90;;;;;;5004931;28;20210;-74
2023/03/19 09:47:42;;;;;;;3.53;3.23;;;17.30;99.90;;;;;;5010669;28;20440;-71
2023/03/19 09:50:18;;;;;;;3.63;2.97;;;17.70;99.90;;;;;;5006302;28;20488;-72
2023/03/19 09:52:59;;;;;;;3.60;2.50;;;18.60;99.90;;;;;;5009327;28;20437;-73
2023/03/19 09:55:46;;;;;;;2.60;2.40;;;19.10;99.90;;;;;;5008006;28;20441;-71
2023/03/19 09:58:15;;;;;;;3.00;2.80;;;19.40;99.90;;;;;;5011305;28;20449;-71
2023/03/19 10:00:42;;;;;;;2.33;2.13;;;19.80;98.40;;;;;;5006651;28;20452;-71
2023/03/19 10:03:34;;;;;;;3.23;2.50;;;20.30;96.80;;;;;;5007376;28;20441;-71
2023/03/19 10:06:03;;;;;;;3.33;3.13;;;21.50;95.40;;;;;;5010891;28;20468;-71
2023/03/19 10:08:50;;;;;;;4.00;2.90;;;23.10;86.20;;;;;;5010738;28;20537;-71
2023/03/19 10:11:38;;;;;;;5.30;3.57;;;23.20;78.80;;;;;;5008464;28;20500;-72
2023/03/19 10:14:28;;;;;;;2.97;2.33;;;24.20;76.00;;;;;;5012625;28;20487;-71
2023/03/19 10:16:56;;;;;;;4.60;2.93;;;22.80;72.40;;;;;;5011777;28;20456;-71
2023/03/19 10:19:30;;;;;;;3.40;3.10;;;22.30;77.00;;;;;;5010194;28;20548;-71
2023/03/19 10:22:03;;;;;;;3.27;2.70;;;22.20;76.80;;;;;;5011076;28;20446;-71
2023/03/19 10:24:37;;;;;;;4.47;2.87;;;22.70;71.80;;;;;;5011214;28;20561;-71
2023/03/19 10:27:20;;;;;;;2.63;2.43;;;22.50;72.10;;;;;;5011708;28;20484;-71
2023/03/19 10:29:45;;;;;;;4.03;2.70;;;21.60;71.80;;;;;;5010677;28;20468;-71
2023/03/19 10:32:26;;;;;;;3.20;2.80;;;21.30;70.50;;;;;;5010873;28;20437;-71
2023/03/19 10:34:52;;;;;;;3.53;3.23;;;21.30;70.20;;;;;;5011697;28;20551;-71
2023/03/19 10:37:25;;;;;;;2.97;2.70;;;21.60;65.40;;;;;;5011161;28;20470;-71
2023/03/19 10:39:56;;;;;;;3.63;2.90;;;21.30;66.40;;;;;;5008612;28;20450;-71
2023/03/19 10:42:59;;;;;;;5.43;3.17;;;21.10;66.30;;;;;;5010602;28;20434;-71
2023/03/19 10:45:34;;;;;;;3.43;3.23;;;21.40;65.40;;;;;;5011188;28;20990;-71
2023/03/19 10:48:01;;;;;;;5.07;2.70;;;22.40;63.80;;;;;;5011342;28;20517;-71
2023/03/19 10:50:50;;;;;;;3.50;3.17;;;22.70;62.60;;;;;;5010773;28;20461;-72
2023/03/19 10:53:16;;;;;;;3.07;2.77;;;23.50;61.00;;;;;;5008924;28;20430;-71
2023/03/19 10:55:52;;;;;;;3.27;2.97;;;22.60;62.00;;;;;;5011094;28;20479;-71
2023/03/19 10:58:20;;;;;;;3.50;2.13;;;22.30;61.70;;;;;;5003210;28;20178;-71
2023/03/19 11:00:47;;;;;;;4.97;2.90;;;21.80;63.40;;;;;;5011484;28;20429;-71
2023/03/19 11:03:49;;;;;;;2.83;2.40;;;22.10;61.90;;;;;;5008532;28;20425;-71
2023/03/19 11:06:23;;;;;;;4.27;2.67;;;21.40;63.30;;;;;;5004392;28;21000;-71
2023/03/19 11:09:12;;;;;;;3.23;3.00;;;21.30;65.70;;;;;;5010518;28;20799;-71
2023/03/19 11:11:56;;;;;;;3.63;3.13;;;21.00;66.50;;;;;;5006218;28;20438;-71
2023/03/19 11:14:33;;;;;;;4.23;3.47;;;21.40;68.30;;;;;;5010582;28;20939;-71
2023/03/19 11:17:20;;;;;;;3.03;2.83;;;22.20;66.30;;;;;;5010652;28;20437;-71
2023/03/19 11:19:54;;;;;;;4.50;2.97;;;21.50;65.70;;;;;;5007471;28;20465;-71
2023/03/19 11:22:36;;;;;;;3.20;2.70;;;21.20;67.60;;;;;;5011111;28;20434;-71
2023/03/19 11:25:18;;;;;;;4.23;2.77;;;21.20;67.90;;;;;;5008881;28;20497;-71
2023/03/19 11:27:44;;;;;;;3.00;2.40;;;20.50;66.50;;;;;;5011110;28;20429;-71
2023/03/19 11:30:18;;;;;;;2.90;2.60;;;20.30;66.70;;;;;;5012242;28;20510;-71
2023/03/19 11:33:05;;;;;;;2.90;2.60;;;20.90;65.70;;;;;;5014976;28;20328;-71
2023/03/19 11:35:37;;;;;;;3.50;2.93;;;21.70;62.30;;;;;;5012615;28;20444;-71
2023/03/19 11:38:03;;;;;;;6.33;2.53;;;23.20;59.40;;;;;;5014048;28;20438;-71
2023/03/19 11:40:50;;;;;;;5.93;3.60;;;24.20;56.20;;;;;;5014033;28;20484;-71
2023/03/19 11:43:37;;;;;;;2.50;2.30;;;24.00;56.70;;;;;;5010568;28;20529;-71
2023/03/19 11:46:07;;;;;;;2.43;2.23;;;23.80;56.60;;;;;;5014014;28;20896;-71
2023/03/19 11:49:01;;;;;;;3.10;2.80;;;24.70;55.50;;;;;;5011698;28;20481;-71
2023/03/19 11:51:46;;;;;;;3.43;3.00;;;23.90;54.20;;;;;;5011682;28;20432;-71
2023/03/19 11:54:22;;;;;;;3.23;2.93;;;22.40;56.90;;;;;;5012709;28;20441;-71
2023/03/19 11:56:54;;;;;;;3.40;3.10;;;21.30;58.60;;;;;;5012907;28;20447;-71
2023/03/19 11:59:38;;;;;;;3.00;2.80;;;20.80;60.20;;;;;;5013231;28;20469;-71
2023/03/19 12:02:19;;;;;;;2.90;2.70;;;20.50;62.00;;;;;;5014207;28;20512;-71
2023/03/19 12:05:04;;;;;;;2.83;2.53;;;21.60;61.60;;;;;;5013319;28;21112;-71
2023/03/19 12:07:59;;;;;;;3.53;3.20;;;22.30;58.70;;;;;;5014420;28;20512;-71
2023/03/19 12:10:55;;;;;;;2.97;2.77;;;22.50;57.90;;;;;;5007734;28;20545;-71
2023/03/19 12:14:01;;;;;;;4.53;3.13;;;23.00;57.10;;;;;;5008975;28;20432;-71
2023/03/19 12:16:48;;;;;;;5.33;3.27;;;23.00;57.50;;;;;;5008653;28;20568;-71
2023/03/19 12:19:44;;;;;;;6.87;3.73;;;23.00;57.80;;;;;;5007176;28;20453;-71
2023/03/19 12:22:22;;;;;;;4.60;3.47;;;21.90;58.50;;;;;;5013461;28;20437;-71
2023/03/19 12:25:11;;;;;;;3.00;2.80;;;21.30;59.80;;;;;;5013788;28;20996;-71
2023/03/19 12:27:45;;;;;;;3.43;3.13;;;22.10;59.40;;;;;;5013762;28;20516;-71
2023/03/19 12:30:25;;;;;;;4.70;3.57;;;23.30;58.40;;;;;;5005287;28;20857;-71
2023/03/19 12:33:13;;;;;;;3.70;3.40;;;23.00;57.10;;;;;;5013467;28;20433;-71
2023/03/19 12:35:42;;;;;;;2.93;2.63;;;22.00;58.30;;;;;;5010009;28;20426;-71
2023/03/19 12:38:23;;;;;;;4.97;3.27;;;21.30;59.60;;;;;;5012062;28;20434;-71
2023/03/19 12:40:57;;;;;;;2.70;2.50;;;20.20;62.00;;;;;;5011523;28;20417;-70
2023/03/19 12:43:37;;;;;;;3.17;2.87;;;19.90;63.90;;;;;;5013564;28;20469;-71
2023/03/19 12:46:13;;;;;;;5.20;2.80;;;20.60;63.40;;;;;;5010187;28;20567;-70
2023/03/19 12:49:06;;;;;;;3.40;3.10;;;20.60;63.40;;;;;;5008319;28;20548;-70
2023/03/19 12:51:37;;;;;;;3.87;2.97;;;20.50;64.10;;;;;;5008803;28;20429;-71
2023/03/19 12:54:28;;;;;;;2.87;2.67;;;20.20;64.20;;;;;;5012828;28;20444;-70
2023/03/19 12:57:07;;;;;;;2.93;2.73;;;19.60;66.90;;;;;;5012532;28;20492;-70